Portada
METAR-TAF:

METAR-TAF

Aeropuertos :

Tsushima, Japón

latitud: 34-17N, longitud: 129-20E, altitud: 63 m

Observación

El informe se hizo hace 5 horas y 8 minutos, a las 11:00 UTC
Viento 2 kt con dirección variable
Temperatura 7°C
Humedad 81%
Presión 1019 hPa
Visibilidad: 8000 m
Escasas nubes a una altura de 1500 ft
Cielo cubierto a una altura de 6000 ft
lluvia ligera

METAR: RJDT 281100Z VRB02KT 8000 -RA FEW015 OVC060 07/04 Q1019

Hora: 01:08 (16:08 UTC)


TAF: falta

Observaciones y pronósticos meteorológicos de más de 4000 aeropuertos (mensajes METAR y TAF).

Los puntos amarillos y rojos representan las estaciones disponibles.

Ponga el ratón en el punto deseado para ver el nombre de la estación.

Haga clic para ver las observaciones y los pronósticos meteorológicos.

Para cambiar el mapa : haga clic en los botones verdes con una cruz de color negro para hacer un zoom, en el botón verde con un guión para alejar o en las flechas verdes para mapas adyacentes.


METAR-TAF: